Jask, Iran

4:35 PM IRDT on March 31, 2015 (GMT +0430)
Jask | | Change Station
CLOSE
Current Station
Airport
Location: Jask,
Elevation: 16 ft
Nearby Weather Stations

Elev 16 ft 25.65 °N, 57.80 °E | Updated 5 minutes ago

Clear
Clear
82 °F
Feels Like 88 °F
N
7
Wind Variable Wind from South

Today
High -- | Low -- °F
--% Chance of Precip.
Yesterday
High -- | Low -- °F
Precip. -- in
6:31 AM 6:54 PM
Waxing Gibbous, 86% visible
Pressure 29.74 in
Visibility 5.0 miles
Clouds Clear
Heat Index 88 °F
Dew Point 73 °F
Humidity 74%
Rainfall 0.00 in
Snow Depth Not available.
UV 3 out of 12
Pollen Not available.
Air Quality Not available.
Flu Activity Not available.
METAR OIZJ 311200Z 18006KT 8000 SKC 28/23 Q1007

More Conditions Fewer Conditions

Pressure 29.74 in
Visibility 5.0 miles
Clouds Clear
Heat Index 88 °F
Dew Point 73 °F
Humidity 74%
Rainfall 0.00 in
Snow Depth Not available.
UV 3 out of 12
Pollen Not available.
Air Quality Not available.
Flu Activity Not available.
METAR OIZJ 311200Z 18006KT 8000 SKC 28/23 Q1007

More Conditions Fewer Conditions

10-Day Weather Forecast

Almanac

Astronomy

Mar. 31, 2015 Rise Set
Actual Time
Civil Twilight
Nautical Twilight
Astronomical Twilight
Moon
Length of Visible Light
Length of Day
Tomorrow will be .
, % of the Moon is Illuminated

Today's Extremes

Country Highs Country Lows

Community

WunderPhotos

Upload Photos

1,809,750 photos uploaded!

WunderBlogs® & News

Nearby

Air Quality

  Air Quality AQ Index Pollutant
Not available.

Snow Depth

Station Depth Elevation

Earthquake Activity

City Distance Mag. Time & Date
Minimum magnitude displayed is 2.5.

Coastal Water Temperatures

Place Temperature

Stations

Nearby Weather Stations

Station Location Temp. Windchill Dew Point Humidity Wind Precip. Elev Updated Type